createdAt,value
2023-03-30T00:02:47.352Z,44.64
2023-03-30T00:07:49.018Z,44.88
2023-03-30T00:12:50.909Z,45.26
2023-03-30T00:17:52.424Z,45.77
2023-03-30T00:22:54.007Z,45.89
2023-03-30T00:27:55.534Z,45.38
2023-03-30T00:32:57.040Z,44.71
2023-03-30T00:37:59.528Z,44.98
2023-03-30T00:43:03.535Z,44.39
2023-03-30T00:48:11.520Z,45.19
2023-03-30T00:53:17.054Z,45.34
2023-03-30T00:58:21.184Z,45.12
2023-03-30T01:03:31.378Z,45.31
2023-03-30T01:08:34.531Z,45.37
2023-03-30T01:13:39.691Z,45.38
2023-03-30T01:19:13.501Z,45.17
2023-03-30T01:24:51.793Z,44.71
2023-03-30T01:30:30.202Z,44.96
2023-03-30T01:36:03.313Z,45.42
2023-03-30T01:41:14.638Z,44.77
2023-03-30T01:46:23.619Z,44.78
2023-03-30T01:51:32.560Z,45.07
2023-03-30T01:56:55.019Z,45.50
2023-03-30T02:02:00.480Z,45.14
2023-03-30T02:07:15.369Z,44.83
2023-03-30T02:12:18.266Z,45.08
2023-03-30T02:17:23.470Z,45.46
2023-03-30T02:22:27.191Z,45.91
2023-03-30T02:27:29.375Z,46.21
2023-03-30T02:32:41.836Z,49.80
2023-03-30T02:38:17.371Z,51.00
2023-03-30T02:43:38.256Z,52.55
2023-03-30T02:48:44.959Z,53.39
2023-03-30T02:53:52.926Z,53.85
2023-03-30T02:59:19.712Z,56.50
2023-03-30T03:04:23.674Z,57.26
2023-03-30T03:09:46.100Z,58.76
2023-03-30T03:14:48.130Z,59.23
2023-03-30T03:19:49.851Z,59.03
2023-03-30T03:24:53.660Z,59.16
2023-03-30T03:30:04.856Z,58.61
2023-03-30T03:35:13.178Z,57.19
2023-03-30T03:40:15.127Z,56.17
2023-03-30T03:45:16.879Z,56.72
2023-03-30T03:50:26.592Z,56.03
2023-03-30T03:55:28.710Z,55.79
2023-03-30T04:00:30.669Z,55.45
2023-03-30T04:05:32.306Z,55.35
2023-03-30T04:10:33.982Z,54.68
2023-03-30T04:15:53.137Z,55.76
2023-03-30T04:21:13.152Z,56.53
2023-03-30T04:26:34.259Z,56.04
2023-03-30T04:31:56.091Z,52.78
2023-03-30T04:37:18.658Z,52.26
2023-03-30T04:42:39.505Z,52.45
2023-03-30T04:47:52.721Z,52.55
2023-03-30T04:53:26.238Z,51.70
2023-03-30T04:58:47.292Z,51.57
2023-03-30T05:03:59.004Z,51.49
2023-03-30T05:09:21.580Z,51.64
2023-03-30T05:14:52.775Z,50.61
2023-03-30T05:20:23.652Z,50.92
2023-03-30T05:25:56.418Z,50.32
2023-03-30T05:31:06.886Z,50.54
2023-03-30T05:36:18.922Z,50.39
2023-03-30T05:41:34.389Z,51.24
2023-03-30T05:46:55.826Z,51.25
2023-03-30T05:52:03.599Z,51.62
2023-03-30T05:57:29.717Z,51.11
2023-03-30T06:02:47.099Z,52.33
2023-03-30T06:07:52.970Z,53.62
2023-03-30T06:12:54.545Z,53.93
2023-03-30T06:18:14.417Z,54.66
2023-03-30T06:23:24.435Z,55.17
2023-03-30T06:28:29.457Z,55.88
2023-03-30T06:33:31.059Z,55.63
2023-03-30T06:38:35.923Z,55.16
2023-03-30T06:43:38.237Z,55.02
2023-03-30T06:48:48.434Z,55.83
2023-03-30T06:54:07.988Z,56.65
2023-03-30T06:59:11.613Z,56.07
2023-03-30T07:04:33.164Z,55.23
2023-03-30T07:09:46.951Z,55.92
2023-03-30T07:14:48.939Z,57.11
2023-03-30T07:19:51.171Z,57.46
2023-03-30T07:24:52.991Z,58.04
2023-03-30T07:29:55.225Z,55.35
2023-03-30T07:34:57.024Z,53.87
2023-03-30T07:40:00.515Z,54.53
2023-03-30T07:45:03.625Z,54.57
2023-03-30T07:50:05.920Z,55.60
2023-03-30T07:55:08.736Z,55.53
2023-03-30T08:00:17.981Z,54.70
2023-03-30T08:05:42.436Z,52.77
2023-03-30T08:10:53.756Z,51.82
2023-03-30T08:15:56.143Z,48.62
2023-03-30T08:20:57.680Z,47.01
2023-03-30T08:26:00.298Z,46.57
2023-03-30T08:31:06.672Z,45.91
2023-03-30T08:36:08.543Z,45.38
2023-03-30T08:41:24.660Z,44.71
2023-03-30T08:46:27.107Z,44.19
2023-03-30T08:51:32.601Z,44.00
2023-03-30T08:56:42.874Z,44.50
2023-03-30T09:02:15.296Z,43.69
2023-03-30T09:07:23.144Z,44.61
2023-03-30T09:12:38.866Z,44.12
2023-03-30T09:17:55.939Z,42.54
2023-03-30T09:23:00.204Z,42.82
2023-03-30T09:28:31.006Z,43.35
2023-03-30T09:33:44.916Z,42.54
2023-03-30T09:38:46.395Z,42.65
2023-03-30T09:43:49.726Z,42.39
2023-03-30T09:48:51.590Z,42.60
2023-03-30T09:54:02.550Z,43.65
2023-03-30T09:59:28.853Z,46.66
2023-03-30T10:04:30.372Z,48.61
2023-03-30T10:09:31.957Z,50.41
2023-03-30T10:14:37.220Z,50.29
2023-03-30T10:19:45.851Z,51.28
2023-03-30T10:24:52.309Z,53.43
2023-03-30T10:29:53.942Z,57.16
2023-03-30T10:34:59.544Z,58.56
2023-03-30T10:40:09.249Z,59.28
2023-03-30T10:45:20.769Z,60.24
2023-03-30T10:50:31.302Z,60.48
2023-03-30T10:55:47.704Z,61.71
2023-03-30T11:01:03.123Z,61.35
2023-03-30T11:06:16.852Z,61.38
2023-03-30T11:11:22.506Z,62.25
2023-03-30T11:16:35.308Z,62.39
2023-03-30T11:21:46.709Z,61.73
2023-03-30T11:27:09.934Z,61.34
2023-03-30T11:32:16.718Z,61.09
2023-03-30T11:37:28.421Z,60.56
2023-03-30T11:42:32.797Z,59.79
2023-03-30T11:47:55.967Z,57.93
2023-03-30T11:53:21.281Z,58.90
2023-03-30T11:58:36.101Z,57.75
2023-03-30T12:03:47.241Z,58.04
2023-03-30T12:09:00.124Z,56.86
2023-03-30T12:14:02.384Z,57.05
2023-03-30T12:19:23.253Z,56.05
2023-03-30T12:24:44.076Z,55.28
2023-03-30T12:30:01.550Z,54.34
2023-03-30T12:35:45.745Z,55.13
2023-03-30T12:41:07.597Z,54.98
2023-03-30T12:46:19.556Z,54.80
2023-03-30T12:51:45.966Z,55.28
2023-03-30T12:56:59.788Z,55.47
2023-03-30T13:02:38.783Z,58.12
2023-03-30T13:07:41.466Z,59.33
2023-03-30T13:12:43.212Z,62.19
2023-03-30T13:17:56.654Z,63.40
2023-03-30T13:22:59.596Z,62.52
2023-03-30T13:28:38.980Z,62.20
2023-03-30T13:33:45.690Z,61.99
2023-03-30T13:38:59.150Z,59.70
2023-03-30T13:44:35.914Z,60.22
2023-03-30T13:49:43.094Z,57.07
2023-03-30T13:54:46.321Z,57.55
2023-03-30T14:00:08.591Z,56.15
2023-03-30T14:05:18.402Z,56.16
2023-03-30T14:10:20.893Z,56.37
2023-03-30T14:15:34.805Z,56.74
2023-03-30T14:20:50.493Z,55.84
2023-03-30T14:25:59.590Z,55.39
2023-03-30T14:31:04.747Z,54.63
2023-03-30T14:36:07.548Z,53.58
2023-03-30T14:41:25.359Z,53.01
2023-03-30T14:46:46.773Z,52.21
2023-03-30T14:51:50.523Z,49.16
2023-03-30T14:57:00.312Z,48.93
2023-03-30T15:02:03.467Z,47.67
2023-03-30T15:07:05.155Z,47.07
2023-03-30T15:12:06.980Z,45.08
2023-03-30T15:17:13.401Z,44.90
2023-03-30T15:22:31.938Z,44.10
2023-03-30T15:27:36.854Z,44.12
2023-03-30T15:32:39.781Z,42.77
2023-03-30T15:37:58.152Z,41.96
2023-03-30T15:43:20.804Z,42.39
2023-03-30T15:48:44.279Z,42.14
2023-03-30T15:54:00.775Z,41.65
2023-03-30T15:59:02.403Z,40.51
2023-03-30T16:04:05.785Z,40.97
2023-03-30T16:09:07.455Z,42.55
2023-03-30T16:14:14.126Z,41.89
2023-03-30T16:19:18.645Z,42.68
2023-03-30T16:24:20.168Z,42.64
2023-03-30T16:29:23.270Z,44.82
2023-03-30T16:34:25.634Z,43.59
2023-03-30T16:39:29.262Z,43.73
2023-03-30T16:44:30.775Z,42.94
2023-03-30T16:49:32.296Z,44.07
2023-03-30T16:54:33.784Z,44.54
2023-03-30T16:59:35.324Z,45.11
2023-03-30T17:04:36.834Z,45.03
2023-03-30T17:09:38.308Z,45.05
2023-03-30T17:14:42.033Z,44.89
2023-03-30T17:19:44.602Z,44.93
2023-03-30T17:24:46.092Z,44.96
2023-03-30T17:29:47.533Z,45.36
2023-03-30T17:34:49.096Z,45.46
2023-03-30T17:39:50.696Z,45.96
2023-03-30T17:44:52.188Z,45.73
2023-03-30T17:49:53.702Z,46.00
2023-03-30T17:54:56.991Z,46.13
2023-03-30T17:59:58.510Z,46.41
2023-03-30T18:04:59.979Z,46.77
2023-03-30T18:10:01.548Z,46.85
2023-03-30T18:15:03.214Z,46.52
2023-03-30T18:20:16.790Z,47.27
2023-03-30T18:25:29.796Z,46.67
2023-03-30T18:30:37.959Z,46.73
2023-03-30T18:35:39.572Z,46.52
2023-03-30T18:40:47.131Z,46.47
2023-03-30T18:45:50.124Z,46.96
2023-03-30T18:50:55.194Z,47.62
2023-03-30T18:55:58.684Z,48.41
2023-03-30T19:01:00.665Z,48.72
2023-03-30T19:06:02.386Z,49.36
2023-03-30T19:11:03.831Z,49.12
2023-03-30T19:16:05.742Z,49.06
2023-03-30T19:21:13.671Z,49.33
2023-03-30T19:26:15.232Z,49.43
2023-03-30T19:31:16.919Z,49.41
2023-03-30T19:36:18.479Z,50.24
2023-03-30T19:41:19.929Z,50.37
2023-03-30T19:46:21.495Z,50.54
2023-03-30T19:51:23.037Z,50.18
2023-03-30T19:56:24.507Z,50.92
2023-03-30T20:01:26.054Z,50.66
2023-03-30T20:06:27.776Z,49.66
2023-03-30T20:11:29.354Z,50.07
2023-03-30T20:16:30.885Z,49.33
2023-03-30T20:21:33.002Z,48.83
2023-03-30T20:26:35.007Z,48.83
2023-03-30T20:31:36.587Z,49.12
2023-03-30T20:36:38.817Z,48.86
2023-03-30T20:41:40.303Z,48.51
2023-03-30T20:46:41.842Z,48.07
2023-03-30T20:51:43.317Z,48.24
2023-03-30T20:56:45.317Z,48.06
2023-03-30T21:01:47.057Z,47.39
2023-03-30T21:06:48.619Z,46.26
2023-03-30T21:11:50.065Z,44.57
2023-03-30T21:16:51.604Z,44.66
2023-03-30T21:21:53.134Z,44.60
2023-03-30T21:26:54.581Z,44.53
2023-03-30T21:31:56.021Z,44.12
2023-03-30T21:36:57.647Z,44.64
2023-03-30T21:41:59.268Z,45.27
2023-03-30T21:47:00.794Z,45.80
2023-03-30T21:52:02.561Z,46.90
2023-03-30T21:57:04.221Z,46.60
2023-03-30T22:02:05.832Z,47.48
2023-03-30T22:07:07.336Z,47.05
2023-03-30T22:12:08.792Z,47.90
2023-03-30T22:17:10.293Z,47.31
2023-03-30T22:22:12.110Z,47.43
2023-03-30T22:27:16.102Z,48.10
2023-03-30T22:32:17.610Z,48.48
2023-03-30T22:37:19.076Z,49.78
2023-03-30T22:42:20.591Z,49.27
2023-03-30T22:47:22.189Z,50.30
2023-03-30T22:52:23.740Z,50.08
2023-03-30T22:57:25.342Z,50.12
2023-03-30T23:02:26.872Z,50.63
2023-03-30T23:07:28.331Z,50.64
2023-03-30T23:12:30.659Z,50.71
2023-03-30T23:17:32.245Z,51.07
2023-03-30T23:22:33.768Z,51.32
2023-03-30T23:27:35.746Z,50.86
2023-03-30T23:32:37.246Z,50.57
2023-03-30T23:37:38.792Z,51.08
2023-03-30T23:42:40.259Z,51.16
2023-03-30T23:47:42.976Z,51.12
2023-03-30T23:52:44.478Z,50.39
2023-03-30T23:57:45.984Z,50.36
